Time;durP1;ratioP1;P1;durP2;ratioP2;P2;SDS_P1;SDS_P2;PMS_P1;PMS_P2;Temp;Humidity;BMP_temperature;BMP_pressure;BME280_temperature;BME280_humidity;BME280_pressure;Samples;Min_cycle;Max_cycle;Signal;HPM_P1;HPM_P2
2023/09/08 00:04:47;;;;;;;17.30;13.50;;;;;;;14.10;82.34;99557.73;226199;1280;22572;-77
2023/09/08 00:09:49;;;;;;;16.30;14.60;;;;;;;14.08;82.56;99552.75;226205;1280;22576;-76
2023/09/08 00:14:51;;;;;;;16.10;14.00;;;;;;;14.06;82.73;99551.63;226231;1276;22551;-75
2023/09/08 00:19:53;;;;;;;19.90;14.70;;;;;;;14.02;82.80;99551.30;225989;1280;22663;-75
2023/09/08 00:24:57;;;;;;;17.90;14.70;;;;;;;13.99;83.09;99545.61;226212;1278;25393;-75
2023/09/08 00:30:01;;;;;;;16.50;13.80;;;;;;;13.97;83.28;99546.05;226209;1280;22537;-76
2023/09/08 00:35:08;;;;;;;18.60;14.40;;;;;;;14.00;83.70;99546.41;226226;1262;22543;-76
2023/09/08 00:40:10;;;;;;;16.20;13.60;;;;;;;14.00;83.44;99543.79;226002;1278;22713;-76
2023/09/08 00:45:12;;;;;;;15.80;14.00;;;;;;;13.98;83.37;99540.83;226176;1276;22565;-76
2023/09/08 00:50:15;;;;;;;16.50;14.60;;;;;;;13.93;83.34;99537.11;225897;1278;24910;-76
2023/09/08 00:55:17;;;;;;;16.90;14.40;;;;;;;13.85;83.43;99540.99;225947;1280;22545;-76
2023/09/08 01:00:19;;;;;;;17.90;14.90;;;;;;;13.78;83.52;99544.09;226151;1280;22541;-76
2023/09/08 01:05:21;;;;;;;17.70;14.30;;;;;;;13.71;83.62;99550.27;225991;1279;22537;-77
2023/09/08 01:10:23;;;;;;;16.10;14.00;;;;;;;13.65;83.93;99553.18;226059;1279;22527;-76
2023/09/08 01:15:26;;;;;;;19.50;15.60;;;;;;;13.63;84.04;99547.09;225922;1279;22554;-76
2023/09/08 01:20:54;;;;;;;17.00;15.10;;;;;;;13.63;84.20;99546.23;226192;1272;22537;-76
2023/09/08 01:26:07;;;;;;;17.60;14.80;;;;;;;13.64;84.34;99542.11;225973;1278;22596;-76
2023/09/08 01:31:09;;;;;;;16.80;13.90;;;;;;;13.61;84.45;99542.32;226012;1278;22966;-76
2023/09/08 01:36:13;;;;;;;18.10;15.40;;;;;;;13.59;84.63;99541.04;226017;1278;161253;-76
2023/09/08 01:41:15;;;;;;;18.10;14.80;;;;;;;13.59;84.81;99540.41;225964;1280;25243;-76
2023/09/08 01:46:18;;;;;;;17.40;14.10;;;;;;;13.59;84.58;99543.77;225963;1279;23127;-75
2023/09/08 01:51:20;;;;;;;17.30;14.40;;;;;;;13.56;84.77;99542.88;226007;1279;22704;-76
2023/09/08 01:56:22;;;;;;;17.80;14.60;;;;;;;13.53;84.91;99548.59;225956;1279;22577;-75
2023/09/08 02:01:24;;;;;;;18.70;15.10;;;;;;;13.49;84.87;99548.36;226037;1280;22546;-75
2023/09/08 02:06:26;;;;;;;17.00;14.40;;;;;;;13.46;85.07;99552.86;226151;1276;22571;-76
2023/09/08 02:11:28;;;;;;;15.60;13.90;;;;;;;13.42;85.17;99555.95;225979;1280;22701;-75
2023/09/08 02:16:30;;;;;;;19.60;14.30;;;;;;;13.40;85.26;99552.75;226195;1274;22572;-76
2023/09/08 02:21:32;;;;;;;18.00;14.20;;;;;;;13.37;85.39;99552.99;226018;1280;25214;-75
2023/09/08 02:26:34;;;;;;;17.50;13.50;;;;;;;13.34;85.46;99546.65;225814;1280;22631;-76
2023/09/08 02:31:36;;;;;;;17.30;14.60;;;;;;;13.33;85.67;99547.98;225931;1280;22542;-76
2023/09/08 02:36:38;;;;;;;23.20;17.90;;;;;;;13.32;85.81;99548.27;225936;1278;22602;-76
2023/09/08 02:41:42;;;;;;;17.70;15.30;;;;;;;13.31;85.67;99548.20;226014;1276;22558;-75
2023/09/08 02:46:44;;;;;;;15.60;13.80;;;;;;;13.27;85.69;99544.30;225943;1280;22654;-76
2023/09/08 02:51:46;;;;;;;19.80;15.20;;;;;;;13.23;85.72;99541.96;225878;1280;22536;-76
2023/09/08 02:56:48;;;;;;;17.80;14.20;;;;;;;13.19;85.74;99533.68;226070;1276;22535;-77
2023/09/08 03:01:50;;;;;;;17.60;14.80;;;;;;;13.14;85.82;99535.41;226117;1277;22548;-76
2023/09/08 03:06:53;;;;;;;16.10;13.90;;;;;;;13.11;86.08;99526.61;226098;1276;22544;-75
2023/09/08 03:11:55;;;;;;;17.80;14.80;;;;;;;13.10;86.29;99521.98;226066;1276;22549;-76
2023/09/08 03:16:57;;;;;;;22.20;16.10;;;;;;;13.08;86.33;99516.50;225907;1280;22531;-76
2023/09/08 03:21:59;;;;;;;18.80;16.40;;;;;;;13.07;86.27;99509.50;225805;1279;22547;-76
2023/09/08 03:27:01;;;;;;;19.40;15.20;;;;;;;13.06;86.45;99504.05;226110;1276;24718;-77
2023/09/08 03:32:03;;;;;;;17.10;15.10;;;;;;;13.01;86.27;99503.57;226099;1277;22527;-76
2023/09/08 03:37:06;;;;;;;20.10;14.90;;;;;;;12.97;86.40;99502.11;226074;1276;25391;-76
2023/09/08 03:42:08;;;;;;;18.80;15.70;;;;;;;12.96;86.74;99499.37;225959;1280;22555;-75
2023/09/08 03:47:10;;;;;;;17.90;15.60;;;;;;;12.95;86.65;99494.75;226058;1280;22550;-75
2023/09/08 03:52:12;;;;;;;18.60;15.80;;;;;;;12.92;86.76;99488.58;225905;1278;22646;-76
2023/09/08 03:57:14;;;;;;;17.10;15.20;;;;;;;12.91;86.81;99489.48;226156;1276;22537;-76
2023/09/08 04:02:16;;;;;;;18.30;16.40;;;;;;;12.87;86.69;99489.97;226037;1277;24737;-76
2023/09/08 04:07:18;;;;;;;23.50;17.70;;;;;;;12.82;86.73;99499.02;226099;1277;22542;-76
2023/09/08 04:12:20;;;;;;;19.40;15.90;;;;;;;12.76;86.57;99499.36;226015;1277;22548;-76
2023/09/08 04:17:21;;;;;;;23.10;17.60;;;;;;;12.70;86.61;99509.65;226020;1276;22546;-76
2023/09/08 04:22:23;;;;;;;20.40;18.20;;;;;;;12.66;86.80;99515.95;225798;1279;22986;-76
2023/09/08 04:27:25;;;;;;;20.90;18.50;;;;;;;12.64;87.08;99513.23;226004;1280;22686;-76
2023/09/08 04:32:28;;;;;;;20.70;18.50;;;;;;;12.64;87.09;99515.67;226068;1273;22557;-77
2023/09/08 04:37:30;;;;;;;21.60;16.80;;;;;;;12.68;87.52;99519.45;226069;1276;22531;-76
2023/09/08 04:42:32;;;;;;;21.00;18.50;;;;;;;12.75;87.59;99516.86;225901;1278;22533;-76
2023/09/08 04:47:35;;;;;;;19.40;17.50;;;;;;;12.79;87.40;99517.92;225847;1279;25351;-76
2023/09/08 04:52:37;;;;;;;18.40;16.40;;;;;;;12.83;87.44;99525.11;225901;1273;24263;-76
2023/09/08 04:57:40;;;;;;;19.30;17.30;;;;;;;12.88;87.65;99521.48;226059;1257;22543;-77
2023/09/08 05:02:42;;;;;;;18.60;15.70;;;;;;;12.94;87.73;99524.04;226020;1276;25315;-77
2023/09/08 05:07:45;;;;;;;21.50;16.30;;;;;;;13.04;87.58;99525.72;225976;1277;22560;-79
2023/09/08 05:12:47;;;;;;;17.10;15.30;;;;;;;13.14;87.78;99528.77;226028;1280;22546;-78
2023/09/08 05:17:49;;;;;;;19.00;15.80;;;;;;;13.26;87.85;99532.58;225935;1275;22558;-77
2023/09/08 05:22:54;;;;;;;20.10;16.60;;;;;;;13.42;87.94;99533.30;225983;1277;25376;-77
2023/09/08 05:27:56;;;;;;;18.20;16.20;;;;;;;13.56;87.71;99533.48;225865;1280;25231;-76
2023/09/08 05:32:59;;;;;;;18.00;16.00;;;;;;;13.70;87.87;99535.63;226011;1276;22604;-76
2023/09/08 05:38:01;;;;;;;20.00;16.50;;;;;;;13.88;88.02;99538.78;225940;1275;22554;-76
2023/09/08 05:43:04;;;;;;;20.70;16.70;;;;;;;14.03;87.87;99542.55;225588;1274;25902;-75
2023/09/08 05:48:06;;;;;;;21.20;16.90;;;;;;;14.19;87.88;99544.23;225630;1273;22655;-76
2023/09/08 05:53:08;;;;;;;20.70;17.30;;;;;;;14.36;87.83;99541.51;225581;1257;22570;-75
2023/09/08 05:58:11;;;;;;;18.90;16.40;;;;;;;14.54;88.12;99540.68;225720;1256;26070;-75
2023/09/08 06:03:13;;;;;;;18.80;16.80;;;;;;;14.75;88.17;99539.58;225283;1265;25433;-76
2023/09/08 06:08:16;;;;;;;22.30;17.80;;;;;;;14.98;87.87;99537.09;225476;1276;22574;-76
2023/09/08 06:13:19;;;;;;;20.70;18.10;;;;;;;15.22;87.72;99534.93;225268;1267;22880;-75
2023/09/08 06:18:21;;;;;;;23.60;17.20;;;;;;;15.42;87.63;99536.47;225279;1267;22571;-76
2023/09/08 06:23:23;;;;;;;17.80;15.90;;;;;;;15.61;87.15;99540.27;225313;1265;22550;-73
2023/09/08 06:28:29;;;;;;;17.40;15.50;;;;;;;15.78;86.93;99539.30;225272;1259;22554;-76
2023/09/08 06:33:31;;;;;;;17.10;15.10;;;;;;;15.97;86.74;99541.55;225149;1273;22560;-77
2023/09/08 06:38:34;;;;;;;17.00;15.20;;;;;;;16.12;86.30;99544.08;225185;1265;22560;-76
2023/09/08 06:43:38;;;;;;;18.80;15.00;;;;;;;16.32;86.40;99545.38;225446;1260;22583;-76
2023/09/08 06:48:45;;;;;;;16.80;14.50;;;;;;;16.53;85.92;99543.02;225263;1262;22574;-75
2023/09/08 06:53:57;;;;;;;15.70;14.00;;;;;;;16.74;85.64;99540.46;225437;1265;22536;-76
2023/09/08 06:59:02;;;;;;;17.30;13.30;;;;;;;16.95;85.09;99534.70;225261;1265;22570;-76
2023/09/08 07:04:05;;;;;;;15.90;13.40;;;;;;;17.15;84.87;99532.08;225248;1260;22570;-75
2023/09/08 07:09:08;;;;;;;19.90;13.90;;;;;;;17.36;84.62;99536.55;225173;1270;25242;-76
2023/09/08 07:14:10;;;;;;;14.80;13.00;;;;;;;17.60;84.33;99543.34;225157;1272;22547;-76
2023/09/08 07:19:12;;;;;;;20.10;13.00;;;;;;;17.85;83.69;99545.54;225155;1257;22544;-75
2023/09/08 07:24:14;;;;;;;16.00;12.20;;;;;;;18.09;83.27;99543.14;225093;1258;22537;-75
2023/09/08 07:29:17;;;;;;;16.90;13.10;;;;;;;18.33;82.87;99546.48;224970;1265;22922;-75
2023/09/08 07:34:19;;;;;;;16.50;12.80;;;;;;;18.57;82.54;99540.76;225050;1262;24352;-76
2023/09/08 07:39:22;;;;;;;14.50;11.80;;;;;;;18.83;82.21;99538.77;225147;1261;23052;-77
2023/09/08 07:44:24;;;;;;;14.60;11.40;;;;;;;19.07;81.51;99533.14;225318;1260;25276;-77
2023/09/08 07:49:26;;;;;;;15.70;11.70;;;;;;;19.27;81.06;99533.79;225282;1265;24266;-76
2023/09/08 07:54:27;;;;;;;14.30;11.10;;;;;;;19.48;80.58;99536.67;225333;1256;22529;-75
2023/09/08 07:59:29;;;;;;;14.00;11.10;;;;;;;19.67;80.15;99536.55;225452;1272;22613;-75
2023/09/08 08:04:31;;;;;;;14.10;11.00;;;;;;;19.85;79.72;99532.89;225467;1258;22521;-76
2023/09/08 08:09:33;;;;;;;14.40;10.30;;;;;;;20.05;79.34;99528.09;225462;1265;23098;-76
2023/09/08 08:14:36;;;;;;;18.20;13.50;;;;;;;20.26;78.97;99527.62;225516;1268;22548;-75
2023/09/08 08:19:38;;;;;;;13.50;10.10;;;;;;;20.49;78.68;99527.37;225513;1256;24357;-77
2023/09/08 08:24:40;;;;;;;14.50;10.00;;;;;;;20.69;78.29;99527.46;225352;1268;23469;-75
2023/09/08 08:29:42;;;;;;;12.40;9.80;;;;;;;20.91;77.87;99529.76;225416;1273;22962;-77
2023/09/08 08:34:44;;;;;;;13.80;9.90;;;;;;;21.10;77.18;99527.31;225266;1260;25428;-78
2023/09/08 08:39:47;;;;;;;12.50;9.50;;;;;;;21.34;76.93;99520.60;225544;1257;23288;-74
2023/09/08 08:44:49;;;;;;;13.80;9.70;;;;;;;21.59;76.33;99518.32;225487;1261;22544;-74
2023/09/08 08:49:54;;;;;;;10.00;9.00;;;;;;;21.81;75.72;99515.91;225642;1257;22603;-74
2023/09/08 08:54:56;;;;;;;9.50;8.50;;;;;;;21.95;74.91;99513.92;225557;1266;22687;-76
2023/09/08 09:00:00;;;;;;;10.30;8.90;;;;;;;22.18;74.60;99509.99;225537;1266;23155;-75
2023/09/08 09:05:04;;;;;;;8.60;7.70;;;;;;;22.37;74.09;99509.86;225292;1262;25213;-75
2023/09/08 09:10:07;;;;;;;12.80;9.20;;;;;;;22.47;72.93;99504.77;225550;1259;22576;-76
2023/09/08 09:15:09;;;;;;;8.60;7.80;;;;;;;22.60;72.75;99504.63;225463;1257;22593;-74
2023/09/08 09:20:20;;;;;;;8.80;7.90;;;;;;;22.76;72.21;99496.61;225493;1261;22766;-76
2023/09/08 09:25:24;;;;;;;10.90;7.80;;;;;;;22.93;71.57;99492.43;225589;1276;22546;-76
2023/09/08 09:30:46;;;;;;;11.20;8.70;;;;;;;23.05;71.30;99488.33;225652;1265;22646;-76
2023/09/08 09:35:54;;;;;;;9.30;8.30;;;;;;;23.26;71.11;99484.73;225660;1276;23328;-76
2023/09/08 09:41:02;;;;;;;8.90;8.00;;;;;;;23.44;70.16;99485.19;225514;1261;22548;-76
2023/09/08 09:46:08;;;;;;;9.90;7.80;;;;;;;23.55;69.43;99487.11;225456;1260;22592;-78
2023/09/08 09:51:19;;;;;;;8.70;7.70;;;;;;;23.70;68.86;99484.56;225509;1280;22570;-74
2023/09/08 09:56:23;;;;;;;8.00;7.00;;;;;;;23.79;68.11;99479.61;225481;1273;22554;-74
2023/09/08 10:01:26;;;;;;;8.40;7.60;;;;;;;23.92;67.56;99476.90;225626;1275;22638;-74
2023/09/08 10:06:37;;;;;;;8.40;7.60;;;;;;;24.06;67.04;99476.58;225326;1268;25450;-74
2023/09/08 10:11:46;;;;;;;8.60;7.60;;;;;;;24.22;66.69;99473.95;225551;1275;22578;-76
2023/09/08 10:16:55;;;;;;;8.60;7.80;;;;;;;24.43;66.47;99474.98;225711;1268;22551;-76
2023/09/08 10:22:03;;;;;;;10.40;8.40;;;;;;;24.64;65.53;99470.98;225647;1275;22547;-76
2023/09/08 10:27:09;;;;;;;10.20;9.30;;;;;;;24.78;64.70;99472.88;225516;1275;22596;-74
2023/09/08 10:32:12;;;;;;;9.90;8.70;;;;;;;24.80;63.83;99468.08;225464;1275;22694;-77
2023/09/08 10:37:19;;;;;;;9.30;7.90;;;;;;;24.89;64.02;99468.83;225583;1273;22555;-76
2023/09/08 10:42:27;;;;;;;8.90;8.00;;;;;;;25.08;63.73;99467.40;225523;1269;24845;-75
2023/09/08 10:47:53;;;;;;;9.00;8.10;;;;;;;25.18;62.77;99456.67;225257;1265;26340;-74
2023/09/08 10:53:06;;;;;;;9.40;8.40;;;;;;;25.32;62.96;99450.69;224127;1274;22588;-76
2023/09/08 10:58:18;;;;;;;10.10;9.10;;;;;;;25.52;63.15;99447.36;225382;1274;22570;-77
2023/09/08 11:03:42;;;;;;;10.50;9.30;;;;;;;25.58;62.35;99446.51;225324;1262;22544;-75
2023/09/08 11:08:45;;;;;;;9.50;8.60;;;;;;;25.62;62.42;99438.30;225525;1265;26297;-76
2023/09/08 11:13:47;;;;;;;8.80;7.90;;;;;;;25.70;61.59;99434.84;225662;1277;24765;-77
2023/09/08 11:18:51;;;;;;;9.50;8.00;;;;;;;25.74;60.79;99430.08;225681;1261;22943;-74
2023/09/08 11:23:53;;;;;;;11.30;8.40;;;;;;;25.80;60.42;99426.77;225787;1275;22567;-74
2023/09/08 11:28:55;;;;;;;9.50;8.50;;;;;;;25.86;60.15;99420.64;225807;1272;22541;-75
2023/09/08 11:33:59;;;;;;;9.30;8.40;;;;;;;25.92;60.23;99414.75;225495;1259;25391;-75
2023/09/08 11:39:06;;;;;;;9.20;8.10;;;;;;;26.05;60.02;99413.38;225575;1259;25252;-74
2023/09/08 11:44:08;;;;;;;8.40;7.60;;;;;;;26.21;59.45;99420.27;225600;1277;22534;-75
2023/09/08 11:49:10;;;;;;;9.70;8.00;;;;;;;26.26;58.78;99414.86;225529;1268;22549;-74
2023/09/08 11:54:12;;;;;;;8.80;7.60;;;;;;;26.30;58.19;99410.67;225384;1259;24232;-75
2023/09/08 11:59:14;;;;;;;8.40;7.50;;;;;;;26.43;58.11;99408.86;225475;1278;22538;-74
2023/09/08 12:04:19;;;;;;;9.00;7.90;;;;;;;26.55;57.53;99406.81;225625;1265;22478;-75
2023/09/08 12:09:21;;;;;;;8.00;7.00;;;;;;;26.56;56.80;99408.12;226322;1261;24302;-75
2023/09/08 12:14:23;;;;;;;8.00;7.20;;;;;;;26.52;56.20;99402.81;225393;1275;22523;-75
2023/09/08 12:19:31;;;;;;;8.90;7.40;;;;;;;26.54;56.19;99393.33;225413;1277;24561;-75
2023/09/08 12:24:52;;;;;;;8.10;7.30;;;;;;;26.56;55.58;99385.57;225676;1277;22965;-75
2023/09/08 12:30:00;;;;;;;7.80;7.10;;;;;;;26.55;55.30;99378.58;225698;1278;22958;-73
2023/09/08 12:35:04;;;;;;;7.40;6.70;;;;;;;26.61;55.34;99378.76;225394;1260;22526;-75
2023/09/08 12:40:07;;;;;;;8.00;7.00;;;;;;;26.67;55.00;99375.59;225489;1265;22940;-74
2023/09/08 12:45:09;;;;;;;8.40;7.20;;;;;;;26.72;54.81;99378.21;225746;1271;22551;-74
2023/09/08 12:50:13;;;;;;;7.50;6.80;;;;;;;26.85;54.54;99369.41;225437;1266;22540;-74
2023/09/08 12:55:14;;;;;;;7.40;6.70;;;;;;;26.87;54.21;99371.61;225769;1277;22525;-77
2023/09/08 13:00:17;;;;;;;7.90;7.10;;;;;;;26.90;54.38;99367.42;225455;1266;22553;-73
2023/09/08 13:05:19;;;;;;;9.50;7.50;;;;;;;26.93;53.82;99364.49;225310;1263;22552;-77
2023/09/08 13:10:21;;;;;;;7.90;7.20;;;;;;;26.94;53.78;99364.23;225340;1281;22543;-76
2023/09/08 13:15:23;;;;;;;7.20;6.50;;;;;;;26.98;53.58;99355.05;225502;1278;22564;-77
2023/09/08 13:20:25;;;;;;;6.90;6.20;;;;;;;27.00;53.18;99348.43;225604;1265;25318;-76
2023/09/08 13:25:28;;;;;;;6.70;6.10;;;;;;;27.01;53.05;99345.73;225409;1265;22568;-75
2023/09/08 13:30:30;;;;;;;7.40;6.60;;;;;;;27.05;52.48;99343.98;225701;1265;22531;-75
2023/09/08 13:35:32;;;;;;;8.90;6.40;;;;;;;27.08;51.50;99343.09;225399;1272;124571;-74
2023/09/08 13:40:34;;;;;;;8.60;5.50;;;;;;;27.05;51.31;99342.09;225584;1270;22570;-74
2023/09/08 13:45:36;;;;;;;6.40;5.70;;;;;;;27.02;51.19;99331.73;225475;1265;22551;-75
2023/09/08 13:50:41;;;;;;;7.10;6.50;;;;;;;27.01;50.81;99330.88;225661;1259;22549;-74
2023/09/08 13:55:45;;;;;;;8.50;7.70;;;;;;;26.99;50.60;99326.89;225609;1275;22536;-75
2023/09/08 14:00:52;;;;;;;6.90;6.20;;;;;;;26.96;50.96;99326.52;225681;1268;22266;-76
2023/09/08 14:05:55;;;;;;;7.00;6.40;;;;;;;27.01;51.50;99323.83;228130;1280;22228;-74
2023/09/08 14:11:03;;;;;;;7.80;7.00;;;;;;;27.10;51.41;99314.87;225648;1266;22576;-75
2023/09/08 14:16:18;;;;;;;7.00;6.40;;;;;;;27.12;51.02;99310.58;225839;1278;22590;-74
2023/09/08 14:21:20;;;;;;;7.40;6.10;;;;;;;27.13;51.10;99308.66;225916;1275;22555;-74
2023/09/08 14:26:22;;;;;;;6.70;6.10;;;;;;;27.12;50.84;99302.38;226093;1268;22688;-74
2023/09/08 14:31:24;;;;;;;7.10;6.40;;;;;;;27.11;51.28;99302.70;226159;1280;22547;-75
2023/09/08 14:36:26;;;;;;;7.00;6.10;;;;;;;27.14;51.39;99299.66;226256;1275;22548;-75
2023/09/08 14:41:28;;;;;;;6.90;6.30;;;;;;;27.13;51.41;99298.79;226168;1280;22637;-77
2023/09/08 14:46:30;;;;;;;6.90;6.30;;;;;;;27.10;51.12;99294.58;226155;1258;25360;-75
2023/09/08 14:51:32;;;;;;;6.50;5.90;;;;;;;27.09;51.30;99292.68;226207;1275;22549;-75
2023/09/08 14:56:34;;;;;;;7.40;6.60;;;;;;;27.11;51.18;99286.77;226208;1276;22539;-75
2023/09/08 15:01:38;;;;;;;7.50;6.20;;;;;;;27.12;51.41;99285.55;226182;1278;24382;-75
2023/09/08 15:06:40;;;;;;;7.30;6.60;;;;;;;27.10;51.45;99282.27;226118;1275;22543;-74
2023/09/08 15:11:42;;;;;;;7.80;6.90;;;;;;;27.05;51.57;99279.36;226136;1276;22535;-75
2023/09/08 15:16:44;;;;;;;7.50;6.90;;;;;;;26.99;51.59;99278.16;226199;1280;22565;-75
2023/09/08 15:21:46;;;;;;;7.00;6.30;;;;;;;26.90;51.40;99277.92;226148;1278;22552;-75
2023/09/08 15:26:49;;;;;;;7.20;6.60;;;;;;;26.84;51.67;99277.83;226082;1280;24976;-77
2023/09/08 15:31:51;;;;;;;7.40;6.70;;;;;;;26.80;51.95;99274.37;226139;1278;22684;-75
2023/09/08 15:36:54;;;;;;;7.60;6.90;;;;;;;26.74;52.12;99272.34;226222;1278;25391;-75
2023/09/08 15:41:56;;;;;;;9.30;6.90;;;;;;;26.64;52.34;99271.66;226188;1276;23298;-75
2023/09/08 15:46:57;;;;;;;8.90;6.70;;;;;;;26.52;52.51;99269.77;226174;1276;22558;-75
2023/09/08 15:52:00;;;;;;;7.90;7.10;;;;;;;26.39;52.75;99262.80;226163;1278;22547;-75
2023/09/08 15:57:17;;;;;;;8.40;7.50;;;;;;;26.22;52.79;99261.95;226139;1273;25409;-75
2023/09/08 16:02:19;;;;;;;8.00;7.20;;;;;;;26.07;53.17;99258.98;226141;1278;22528;-75
2023/09/08 16:07:21;;;;;;;8.10;7.30;;;;;;;25.91;53.21;99255.36;226141;1272;24329;-74
2023/09/08 16:12:23;;;;;;;9.20;7.60;;;;;;;25.74;53.46;99255.58;226141;1278;22482;-74
2023/09/08 16:17:26;;;;;;;9.70;7.40;;;;;;;25.55;53.83;99251.98;226159;1280;22576;-75
2023/09/08 16:22:28;;;;;;;8.30;7.50;;;;;;;25.35;54.03;99242.91;226165;1278;22537;-75
2023/09/08 16:27:30;;;;;;;8.90;8.00;;;;;;;25.15;54.34;99243.69;226150;1278;24212;-75
2023/09/08 16:32:33;;;;;;;10.20;8.20;;;;;;;24.96;54.69;99244.12;226125;1280;22539;-75
2023/09/08 16:37:35;;;;;;;9.10;8.30;;;;;;;24.80;55.24;99243.02;225963;1275;25924;-76
2023/09/08 16:42:37;;;;;;;9.10;7.90;;;;;;;24.61;55.55;99247.48;226157;1278;22535;-75
2023/09/08 16:47:39;;;;;;;9.80;8.40;;;;;;;24.41;56.11;99243.98;226157;1276;22550;-75
2023/09/08 16:52:41;;;;;;;10.10;7.90;;;;;;;24.18;56.64;99243.30;226126;1278;22536;-75
2023/09/08 16:57:43;;;;;;;10.70;8.90;;;;;;;23.93;57.16;99238.66;226147;1278;22628;-75
2023/09/08 17:02:45;;;;;;;10.80;9.30;;;;;;;23.68;57.76;99239.63;226181;1278;22537;-74
2023/09/08 17:07:47;;;;;;;10.10;8.80;;;;;;;23.42;58.28;99242.58;226171;1278;25969;-75
2023/09/08 17:12:49;;;;;;;11.50;8.60;;;;;;;23.17;58.75;99246.40;226147;1278;22536;-75
2023/09/08 17:17:51;;;;;;;11.90;8.90;;;;;;;22.93;59.19;99251.59;226248;1278;22545;-75
2023/09/08 17:22:53;;;;;;;16.90;10.10;;;;;;;22.68;59.81;99254.09;226209;1278;22532;-74
2023/09/08 17:27:55;;;;;;;14.50;10.40;;;;;;;22.44;60.14;99251.52;226147;1278;23451;-75
2023/09/08 17:32:57;;;;;;;11.80;9.30;;;;;;;22.21;60.59;99256.07;226166;1280;22569;-75
2023/09/08 17:37:59;;;;;;;15.70;11.10;;;;;;;21.98;61.24;99257.38;226096;1278;22567;-77
2023/09/08 17:43:01;;;;;;;16.10;12.10;;;;;;;21.75;61.76;99263.87;226125;1280;22546;-75
2023/09/08 17:48:04;;;;;;;12.50;10.50;;;;;;;21.53;62.07;99266.40;226214;1278;23067;-74
2023/09/08 17:53:07;;;;;;;13.80;9.70;;;;;;;21.30;62.62;99267.04;226173;1278;22551;-74
2023/09/08 17:58:09;;;;;;;14.60;9.60;;;;;;;21.09;63.19;99267.91;225932;1278;22735;-75
2023/09/08 18:03:10;;;;;;;14.50;10.60;;;;;;;20.89;63.73;99269.06;226177;1280;22541;-75
2023/09/08 18:08:16;;;;;;;12.20;10.30;;;;;;;20.69;64.28;99270.18;226140;1275;22575;-75
2023/09/08 18:13:18;;;;;;;18.10;15.60;;;;;;;20.52;64.77;99271.10;225941;1278;22578;-74
2023/09/08 18:18:21;;;;;;;24.00;19.60;;;;;;;20.35;65.19;99271.16;226159;1280;22547;-74
2023/09/08 18:23:23;;;;;;;24.80;19.70;;;;;;;20.21;65.71;99271.11;226156;1278;22564;-75
2023/09/08 18:28:25;;;;;;;19.20;14.30;;;;;;;20.05;66.09;99273.20;226173;1278;22547;-75
2023/09/08 18:33:28;;;;;;;16.40;11.50;;;;;;;19.90;66.32;99267.65;225909;1280;24223;-74
2023/09/08 18:38:33;;;;;;;16.10;12.00;;;;;;;19.75;66.64;99270.10;226153;1276;22558;-75
2023/09/08 18:43:35;;;;;;;13.50;10.60;;;;;;;19.58;67.06;99271.52;226175;1278;22656;-76
2023/09/08 18:48:37;;;;;;;15.50;10.70;;;;;;;19.42;67.21;99267.78;226214;1276;25263;-75
2023/09/08 18:53:40;;;;;;;13.80;11.40;;;;;;;19.27;67.74;99267.27;226179;1278;22543;-76
2023/09/08 18:58:44;;;;;;;14.40;11.90;;;;;;;19.12;68.17;99267.56;226190;1279;22540;-75
2023/09/08 19:03:46;;;;;;;14.80;11.90;;;;;;;18.99;68.67;99272.13;226130;1279;22555;-75
2023/09/08 19:08:49;;;;;;;13.50;12.10;;;;;;;18.89;69.06;99272.23;226085;1280;22532;-74
2023/09/08 19:13:51;;;;;;;17.90;12.70;;;;;;;18.79;69.51;99276.85;226093;1276;22523;-74
2023/09/08 19:18:53;;;;;;;15.30;12.90;;;;;;;18.70;69.91;99277.52;226141;1280;23299;-75
2023/09/08 19:23:55;;;;;;;17.20;13.80;;;;;;;18.61;70.45;99279.61;226166;1280;24366;-75
2023/09/08 19:28:56;;;;;;;17.40;14.70;;;;;;;18.52;70.76;99280.79;226163;1276;22545;-77
2023/09/08 19:34:02;;;;;;;20.90;15.60;;;;;;;18.42;71.01;99279.71;226172;1263;22544;-75
2023/09/08 19:39:04;;;;;;;18.70;15.80;;;;;;;18.32;71.34;99283.88;226179;1278;22597;-75
2023/09/08 19:44:06;;;;;;;18.60;15.60;;;;;;;18.22;71.71;99281.95;226175;1276;22560;-74
2023/09/08 19:49:08;;;;;;;18.30;16.40;;;;;;;18.13;72.12;99281.73;225962;1278;22580;-74
2023/09/08 19:54:10;;;;;;;19.60;15.30;;;;;;;18.06;72.68;99276.65;225955;1280;22555;-76
2023/09/08 19:59:17;;;;;;;19.30;16.30;;;;;;;17.98;73.00;99278.52;226160;1280;22572;-74
2023/09/08 20:04:20;;;;;;;19.70;16.00;;;;;;;17.90;73.26;99282.42;226228;1276;22556;-76
2023/09/08 20:09:22;;;;;;;19.00;15.20;;;;;;;17.85;73.47;99280.91;226163;1278;22561;-75
2023/09/08 20:14:26;;;;;;;17.10;15.00;;;;;;;17.80;73.56;99281.09;226175;1269;22577;-76
2023/09/08 20:19:28;;;;;;;19.50;16.20;;;;;;;17.73;73.85;99290.46;226194;1273;22563;-74
2023/09/08 20:24:30;;;;;;;17.70;15.10;;;;;;;17.61;74.03;99291.63;226216;1276;22543;-76
2023/09/08 20:29:32;;;;;;;18.40;15.40;;;;;;;17.47;74.20;99291.92;226119;1278;22533;-76
2023/09/08 20:34:34;;;;;;;22.00;16.30;;;;;;;17.32;74.65;99293.70;225929;1280;22609;-75
2023/09/08 20:39:36;;;;;;;19.00;15.70;;;;;;;17.19;74.98;99293.02;226220;1280;22554;-75
2023/09/08 20:44:39;;;;;;;18.20;15.80;;;;;;;17.08;75.24;99297.26;226185;1280;22580;-73
2023/09/08 20:49:42;;;;;;;19.60;16.20;;;;;;;16.98;75.66;99293.92;226001;1280;22561;-75
2023/09/08 20:54:44;;;;;;;20.30;16.30;;;;;;;16.89;75.94;99296.04;226192;1266;25765;-75
2023/09/08 20:59:46;;;;;;;19.10;15.80;;;;;;;16.81;75.98;99298.52;225988;1279;22656;-75
2023/09/08 21:04:48;;;;;;;20.70;15.90;;;;;;;16.72;76.07;99294.92;226175;1280;22559;-75
2023/09/08 21:09:49;;;;;;;17.10;15.10;;;;;;;16.64;76.34;99295.33;226170;1280;22587;-75
2023/09/08 21:14:51;;;;;;;19.90;15.90;;;;;;;16.57;76.58;99301.84;226086;1276;22669;-75
2023/09/08 21:19:54;;;;;;;18.50;16.10;;;;;;;16.49;76.79;99296.29;226122;1273;22554;-75
2023/09/08 21:24:56;;;;;;;19.80;16.60;;;;;;;16.43;76.93;99293.30;225827;1280;22650;-75
2023/09/08 21:29:58;;;;;;;21.90;16.40;;;;;;;16.37;77.23;99290.36;225607;1273;25252;-75
2023/09/08 21:35:00;;;;;;;19.30;16.70;;;;;;;16.34;77.49;99289.50;226040;1278;22536;-74
2023/09/08 21:40:03;;;;;;;23.90;16.80;;;;;;;16.30;77.46;99291.02;226170;1280;22544;-75
2023/09/08 21:45:06;;;;;;;19.40;16.40;;;;;;;16.24;77.63;99289.85;226173;1280;22570;-74
2023/09/08 21:50:08;;;;;;;20.60;17.60;;;;;;;16.18;77.71;99288.44;226170;1280;23041;-74
2023/09/08 21:55:10;;;;;;;20.30;17.30;;;;;;;16.12;77.90;99285.40;226174;1280;22547;-73
2023/09/08 22:00:17;;;;;;;19.60;17.70;;;;;;;16.05;78.16;99288.82;225940;1280;22537;-74
2023/09/08 22:05:19;;;;;;;24.30;17.70;;;;;;;15.98;78.13;99284.39;226087;1276;22646;-75
2023/09/08 22:10:21;;;;;;;21.40;17.20;;;;;;;15.92;78.25;99284.88;226139;1277;25388;-73
2023/09/08 22:15:24;;;;;;;24.40;18.40;;;;;;;15.84;78.38;99285.04;226061;1280;23015;-74
2023/09/08 22:20:26;;;;;;;21.20;17.40;;;;;;;15.78;78.74;99286.61;226105;1280;22559;-73
2023/09/08 22:25:32;;;;;;;19.70;17.60;;;;;;;15.73;78.92;99282.73;225989;1279;22614;-77
2023/09/08 22:30:34;;;;;;;24.50;18.00;;;;;;;15.68;78.95;99280.94;225976;1280;24211;-74
2023/09/08 22:35:36;;;;;;;22.70;18.40;;;;;;;15.63;79.11;99279.83;226112;1273;25935;-75
2023/09/08 22:40:38;;;;;;;22.50;19.00;;;;;;;15.57;79.44;99277.00;226108;1280;24721;-74
2023/09/08 22:45:43;;;;;;;21.40;18.70;;;;;;;15.53;79.75;99276.72;226112;1277;22547;-74
2023/09/08 22:50:49;;;;;;;20.80;17.70;;;;;;;15.51;79.85;99273.80;226145;1276;22925;-75
2023/09/08 22:55:51;;;;;;;21.20;18.00;;;;;;;15.49;80.09;99274.05;226104;1273;22547;-74
2023/09/08 23:00:53;;;;;;;20.80;17.10;;;;;;;15.48;80.10;99271.67;226099;1276;22575;-74
2023/09/08 23:05:55;;;;;;;19.30;16.60;;;;;;;15.47;80.13;99271.52;226092;1276;22580;-75
2023/09/08 23:11:03;;;;;;;19.50;17.10;;;;;;;15.47;80.32;99263.69;226094;1280;22565;-74